sensor_id;sensor_type;location;lat;lon;timestamp;P1;durP1;ratioP1;P2;durP2;ratioP2
37693;SDS011;23531;50.122;8.644;2022-09-29T00:01:31;8.57;;;5.03;;
37693;SDS011;23531;50.122;8.644;2022-09-29T00:03:33;7.13;;;4.50;;
37693;SDS011;23531;50.122;8.644;2022-09-29T00:05:35;8.02;;;4.63;;
37693;SDS011;23531;50.122;8.644;2022-09-29T00:07:36;6.80;;;4.28;;
37693;SDS011;23531;50.122;8.644;2022-09-29T00:09:37;7.63;;;4.95;;
37693;SDS011;23531;50.122;8.644;2022-09-29T00:11:38;7.32;;;4.82;;
37693;SDS011;23531;50.122;8.644;2022-09-29T00:13:40;10.52;;;5.25;;
37693;SDS011;23531;50.122;8.644;2022-09-29T00:15:41;9.85;;;5.50;;
37693;SDS011;23531;50.122;8.644;2022-09-29T00:17:44;8.98;;;4.72;;
37693;SDS011;23531;50.122;8.644;2022-09-29T00:19:45;6.18;;;4.70;;
37693;SDS011;23531;50.122;8.644;2022-09-29T00:21:46;8.50;;;5.43;;
37693;SDS011;23531;50.122;8.644;2022-09-29T00:23:48;8.95;;;5.38;;
37693;SDS011;23531;50.122;8.644;2022-09-29T00:25:57;7.93;;;5.30;;
37693;SDS011;23531;50.122;8.644;2022-09-29T00:27:58;11.10;;;4.88;;
37693;SDS011;23531;50.122;8.644;2022-09-29T00:30:00;8.27;;;4.70;;
37693;SDS011;23531;50.122;8.644;2022-09-29T00:32:01;9.02;;;4.80;;
37693;SDS011;23531;50.122;8.644;2022-09-29T00:34:03;8.02;;;5.65;;
37693;SDS011;23531;50.122;8.644;2022-09-29T00:36:05;8.27;;;6.00;;
37693;SDS011;23531;50.122;8.644;2022-09-29T00:38:07;7.93;;;5.07;;
37693;SDS011;23531;50.122;8.644;2022-09-29T00:40:09;8.63;;;5.20;;
37693;SDS011;23531;50.122;8.644;2022-09-29T00:42:11;9.13;;;5.00;;
37693;SDS011;23531;50.122;8.644;2022-09-29T00:46:33;5.97;;;5.10;;
37693;SDS011;23531;50.122;8.644;2022-09-29T00:48:37;8.82;;;5.55;;
37693;SDS011;23531;50.122;8.644;2022-09-29T00:50:40;7.45;;;5.57;;
37693;SDS011;23531;50.122;8.644;2022-09-29T00:52:43;10.85;;;5.40;;
37693;SDS011;23531;50.122;8.644;2022-09-29T00:54:47;7.10;;;4.80;;
37693;SDS011;23531;50.122;8.644;2022-09-29T00:56:50;8.10;;;5.00;;
37693;SDS011;23531;50.122;8.644;2022-09-29T00:58:52;12.75;;;4.97;;
37693;SDS011;23531;50.122;8.644;2022-09-29T01:00:54;10.55;;;5.28;;
37693;SDS011;23531;50.122;8.644;2022-09-29T01:02:56;10.13;;;5.10;;
37693;SDS011;23531;50.122;8.644;2022-09-29T01:04:58;7.28;;;5.07;;
37693;SDS011;23531;50.122;8.644;2022-09-29T01:07:02;8.52;;;5.18;;
37693;SDS011;23531;50.122;8.644;2022-09-29T01:09:03;7.00;;;4.80;;
37693;SDS011;23531;50.122;8.644;2022-09-29T01:11:05;6.65;;;4.90;;
37693;SDS011;23531;50.122;8.644;2022-09-29T01:13:07;7.70;;;5.00;;
37693;SDS011;23531;50.122;8.644;2022-09-29T01:15:09;7.53;;;5.25;;
37693;SDS011;23531;50.122;8.644;2022-09-29T01:17:10;7.90;;;5.15;;
37693;SDS011;23531;50.122;8.644;2022-09-29T01:19:13;9.55;;;5.50;;
37693;SDS011;23531;50.122;8.644;2022-09-29T01:21:16;6.15;;;5.22;;
37693;SDS011;23531;50.122;8.644;2022-09-29T01:23:41;9.75;;;6.00;;
37693;SDS011;23531;50.122;8.644;2022-09-29T01:25:47;7.63;;;5.50;;
37693;SDS011;23531;50.122;8.644;2022-09-29T01:28:05;6.97;;;5.18;;
37693;SDS011;23531;50.122;8.644;2022-09-29T01:30:13;7.50;;;5.57;;
37693;SDS011;23531;50.122;8.644;2022-09-29T01:32:19;8.57;;;5.95;;
37693;SDS011;23531;50.122;8.644;2022-09-29T01:34:23;7.88;;;5.65;;
37693;SDS011;23531;50.122;8.644;2022-09-29T01:36:31;7.53;;;5.72;;
37693;SDS011;23531;50.122;8.644;2022-09-29T01:38:40;8.73;;;5.18;;
37693;SDS011;23531;50.122;8.644;2022-09-29T01:40:44;10.73;;;5.20;;
37693;SDS011;23531;50.122;8.644;2022-09-29T01:42:50;7.10;;;5.07;;
37693;SDS011;23531;50.122;8.644;2022-09-29T01:44:53;10.15;;;6.15;;
37693;SDS011;23531;50.122;8.644;2022-09-29T01:46:56;7.68;;;5.38;;
37693;SDS011;23531;50.122;8.644;2022-09-29T01:49:02;10.18;;;5.68;;
37693;SDS011;23531;50.122;8.644;2022-09-29T01:51:05;9.68;;;5.85;;
37693;SDS011;23531;50.122;8.644;2022-09-29T01:53:08;9.38;;;5.20;;
37693;SDS011;23531;50.122;8.644;2022-09-29T01:55:12;9.07;;;5.30;;
37693;SDS011;23531;50.122;8.644;2022-09-29T01:57:14;8.25;;;5.95;;
37693;SDS011;23531;50.122;8.644;2022-09-29T01:59:18;10.93;;;6.18;;
37693;SDS011;23531;50.122;8.644;2022-09-29T02:01:22;9.27;;;5.65;;
37693;SDS011;23531;50.122;8.644;2022-09-29T02:03:25;7.95;;;5.68;;
37693;SDS011;23531;50.122;8.644;2022-09-29T02:05:30;9.20;;;5.32;;
37693;SDS011;23531;50.122;8.644;2022-09-29T02:07:34;7.78;;;5.55;;
37693;SDS011;23531;50.122;8.644;2022-09-29T02:09:37;8.70;;;5.90;;
37693;SDS011;23531;50.122;8.644;2022-09-29T02:11:39;8.82;;;5.78;;
37693;SDS011;23531;50.122;8.644;2022-09-29T02:13:42;10.82;;;5.78;;
37693;SDS011;23531;50.122;8.644;2022-09-29T02:15:46;8.80;;;6.07;;
37693;SDS011;23531;50.122;8.644;2022-09-29T02:17:48;13.15;;;5.97;;
37693;SDS011;23531;50.122;8.644;2022-09-29T02:19:51;9.98;;;6.43;;
37693;SDS011;23531;50.122;8.644;2022-09-29T02:21:54;13.65;;;5.88;;
37693;SDS011;23531;50.122;8.644;2022-09-29T02:23:56;9.27;;;5.68;;
37693;SDS011;23531;50.122;8.644;2022-09-29T02:25:58;8.82;;;5.20;;
37693;SDS011;23531;50.122;8.644;2022-09-29T02:28:00;8.68;;;6.15;;
37693;SDS011;23531;50.122;8.644;2022-09-29T02:30:02;7.43;;;5.85;;
37693;SDS011;23531;50.122;8.644;2022-09-29T02:32:05;10.57;;;6.28;;
37693;SDS011;23531;50.122;8.644;2022-09-29T02:34:09;8.73;;;5.78;;
37693;SDS011;23531;50.122;8.644;2022-09-29T02:36:17;8.35;;;6.13;;
37693;SDS011;23531;50.122;8.644;2022-09-29T02:38:21;9.73;;;6.10;;
37693;SDS011;23531;50.122;8.644;2022-09-29T02:40:27;8.48;;;5.50;;
37693;SDS011;23531;50.122;8.644;2022-09-29T02:42:31;10.18;;;5.72;;
37693;SDS011;23531;50.122;8.644;2022-09-29T02:46:58;10.15;;;5.70;;
37693;SDS011;23531;50.122;8.644;2022-09-29T02:49:08;12.35;;;6.22;;
37693;SDS011;23531;50.122;8.644;2022-09-29T02:51:14;9.70;;;5.70;;
37693;SDS011;23531;50.122;8.644;2022-09-29T02:53:23;11.25;;;5.78;;
37693;SDS011;23531;50.122;8.644;2022-09-29T02:55:27;10.07;;;5.65;;
37693;SDS011;23531;50.122;8.644;2022-09-29T02:57:35;10.43;;;6.60;;
37693;SDS011;23531;50.122;8.644;2022-09-29T02:59:39;13.98;;;6.80;;
37693;SDS011;23531;50.122;8.644;2022-09-29T03:01:47;11.73;;;6.03;;
37693;SDS011;23531;50.122;8.644;2022-09-29T03:03:48;6.70;;;5.60;;
37693;SDS011;23531;50.122;8.644;2022-09-29T03:05:50;9.32;;;6.53;;
37693;SDS011;23531;50.122;8.644;2022-09-29T03:07:51;9.18;;;6.45;;
37693;SDS011;23531;50.122;8.644;2022-09-29T03:09:54;11.65;;;6.40;;
37693;SDS011;23531;50.122;8.644;2022-09-29T03:11:55;9.35;;;5.60;;
37693;SDS011;23531;50.122;8.644;2022-09-29T03:13:57;8.75;;;6.05;;
37693;SDS011;23531;50.122;8.644;2022-09-29T03:15:59;8.82;;;6.72;;
37693;SDS011;23531;50.122;8.644;2022-09-29T03:18:00;7.80;;;5.75;;
37693;SDS011;23531;50.122;8.644;2022-09-29T03:20:04;10.00;;;6.47;;
37693;SDS011;23531;50.122;8.644;2022-09-29T03:22:05;10.88;;;6.32;;
37693;SDS011;23531;50.122;8.644;2022-09-29T03:24:06;10.25;;;6.20;;
37693;SDS011;23531;50.122;8.644;2022-09-29T03:26:09;6.47;;;5.70;;
37693;SDS011;23531;50.122;8.644;2022-09-29T03:28:10;9.27;;;6.40;;
37693;SDS011;23531;50.122;8.644;2022-09-29T03:30:12;10.68;;;6.50;;
37693;SDS011;23531;50.122;8.644;2022-09-29T03:32:13;8.23;;;6.05;;
37693;SDS011;23531;50.122;8.644;2022-09-29T03:34:14;9.73;;;6.28;;
37693;SDS011;23531;50.122;8.644;2022-09-29T03:36:15;8.57;;;5.65;;
37693;SDS011;23531;50.122;8.644;2022-09-29T03:38:17;10.50;;;7.10;;
37693;SDS011;23531;50.122;8.644;2022-09-29T03:40:18;9.07;;;6.50;;
37693;SDS011;23531;50.122;8.644;2022-09-29T03:42:21;10.52;;;6.55;;
37693;SDS011;23531;50.122;8.644;2022-09-29T03:44:23;14.80;;;7.07;;
37693;SDS011;23531;50.122;8.644;2022-09-29T03:46:26;11.45;;;6.15;;
37693;SDS011;23531;50.122;8.644;2022-09-29T03:48:28;10.95;;;6.78;;
37693;SDS011;23531;50.122;8.644;2022-09-29T03:50:30;8.40;;;6.40;;
37693;SDS011;23531;50.122;8.644;2022-09-29T03:52:31;14.75;;;7.38;;
37693;SDS011;23531;50.122;8.644;2022-09-29T03:54:32;10.73;;;6.53;;
37693;SDS011;23531;50.122;8.644;2022-09-29T03:56:34;10.40;;;6.93;;
37693;SDS011;23531;50.122;8.644;2022-09-29T03:58:37;13.38;;;7.80;;
37693;SDS011;23531;50.122;8.644;2022-09-29T04:00:38;12.95;;;8.55;;
37693;SDS011;23531;50.122;8.644;2022-09-29T04:02:40;15.27;;;8.02;;
37693;SDS011;23531;50.122;8.644;2022-09-29T04:04:41;14.88;;;8.18;;
37693;SDS011;23531;50.122;8.644;2022-09-29T04:06:42;12.93;;;7.32;;
37693;SDS011;23531;50.122;8.644;2022-09-29T04:08:44;12.25;;;8.40;;
37693;SDS011;23531;50.122;8.644;2022-09-29T04:10:45;13.07;;;7.60;;
37693;SDS011;23531;50.122;8.644;2022-09-29T04:12:46;9.88;;;6.35;;
37693;SDS011;23531;50.122;8.644;2022-09-29T04:14:49;10.43;;;6.38;;
37693;SDS011;23531;50.122;8.644;2022-09-29T04:16:50;14.70;;;5.78;;
37693;SDS011;23531;50.122;8.644;2022-09-29T04:18:52;10.68;;;5.28;;
37693;SDS011;23531;50.122;8.644;2022-09-29T04:20:53;8.02;;;6.00;;
37693;SDS011;23531;50.122;8.644;2022-09-29T04:22:56;8.60;;;5.85;;
37693;SDS011;23531;50.122;8.644;2022-09-29T04:24:57;5.55;;;4.85;;
37693;SDS011;23531;50.122;8.644;2022-09-29T04:26:58;6.70;;;5.15;;
37693;SDS011;23531;50.122;8.644;2022-09-29T04:29:00;8.00;;;5.32;;
37693;SDS011;23531;50.122;8.644;2022-09-29T04:31:03;9.73;;;5.13;;
37693;SDS011;23531;50.122;8.644;2022-09-29T04:33:04;8.60;;;4.75;;
37693;SDS011;23531;50.122;8.644;2022-09-29T04:35:06;9.10;;;4.95;;
37693;SDS011;23531;50.122;8.644;2022-09-29T04:37:07;11.43;;;5.43;;
37693;SDS011;23531;50.122;8.644;2022-09-29T04:39:10;10.13;;;4.72;;
37693;SDS011;23531;50.122;8.644;2022-09-29T04:41:12;6.80;;;5.13;;
37693;SDS011;23531;50.122;8.644;2022-09-29T04:43:13;6.15;;;4.60;;
37693;SDS011;23531;50.122;8.644;2022-09-29T04:45:14;6.80;;;4.40;;
37693;SDS011;23531;50.122;8.644;2022-09-29T04:47:17;7.53;;;5.10;;
37693;SDS011;23531;50.122;8.644;2022-09-29T04:49:18;7.38;;;4.40;;
37693;SDS011;23531;50.122;8.644;2022-09-29T04:51:20;7.05;;;4.30;;
37693;SDS011;23531;50.122;8.644;2022-09-29T04:53:21;5.68;;;4.50;;
37693;SDS011;23531;50.122;8.644;2022-09-29T04:55:22;6.93;;;4.28;;
37693;SDS011;23531;50.122;8.644;2022-09-29T04:57:24;7.72;;;5.30;;
37693;SDS011;23531;50.122;8.644;2022-09-29T04:59:25;8.13;;;4.50;;
37693;SDS011;23531;50.122;8.644;2022-09-29T05:01:27;7.47;;;5.88;;
37693;SDS011;23531;50.122;8.644;2022-09-29T05:03:30;8.35;;;5.38;;
37693;SDS011;23531;50.122;8.644;2022-09-29T05:05:31;9.77;;;6.15;;
37693;SDS011;23531;50.122;8.644;2022-09-29T05:07:33;10.73;;;5.72;;
37693;SDS011;23531;50.122;8.644;2022-09-29T05:09:34;8.35;;;6.22;;
37693;SDS011;23531;50.122;8.644;2022-09-29T05:11:35;11.55;;;7.78;;
37693;SDS011;23531;50.122;8.644;2022-09-29T05:13:37;10.45;;;7.07;;
37693;SDS011;23531;50.122;8.644;2022-09-29T05:15:38;13.27;;;5.75;;
37693;SDS011;23531;50.122;8.644;2022-09-29T05:17:39;13.70;;;8.23;;
37693;SDS011;23531;50.122;8.644;2022-09-29T05:19:42;11.65;;;8.07;;
37693;SDS011;23531;50.122;8.644;2022-09-29T05:21:43;13.02;;;9.52;;
37693;SDS011;23531;50.122;8.644;2022-09-29T05:23:46;10.30;;;6.47;;
37693;SDS011;23531;50.122;8.644;2022-09-29T05:25:47;7.93;;;5.72;;
37693;SDS011;23531;50.122;8.644;2022-09-29T05:27:49;8.88;;;4.88;;
37693;SDS011;23531;50.122;8.644;2022-09-29T05:29:50;7.97;;;4.55;;
37693;SDS011;23531;50.122;8.644;2022-09-29T05:31:51;6.97;;;4.32;;
37693;SDS011;23531;50.122;8.644;2022-09-29T05:33:53;9.23;;;4.85;;
37693;SDS011;23531;50.122;8.644;2022-09-29T05:35:56;11.45;;;5.15;;
37693;SDS011;23531;50.122;8.644;2022-09-29T05:37:57;8.10;;;4.93;;
37693;SDS011;23531;50.122;8.644;2022-09-29T05:39:59;13.90;;;5.55;;
37693;SDS011;23531;50.122;8.644;2022-09-29T05:42:00;9.80;;;6.03;;
37693;SDS011;23531;50.122;8.644;2022-09-29T05:44:01;13.10;;;6.60;;
37693;SDS011;23531;50.122;8.644;2022-09-29T05:46:06;12.48;;;6.25;;
37693;SDS011;23531;50.122;8.644;2022-09-29T05:48:08;8.90;;;6.75;;
37693;SDS011;23531;50.122;8.644;2022-09-29T05:50:09;13.95;;;6.63;;
37693;SDS011;23531;50.122;8.644;2022-09-29T05:52:12;16.02;;;7.35;;
37693;SDS011;23531;50.122;8.644;2022-09-29T05:54:13;11.65;;;8.00;;
37693;SDS011;23531;50.122;8.644;2022-09-29T05:56:15;11.43;;;7.10;;
37693;SDS011;23531;50.122;8.644;2022-09-29T05:58:18;13.82;;;7.72;;
37693;SDS011;23531;50.122;8.644;2022-09-29T06:00:19;10.85;;;7.35;;
37693;SDS011;23531;50.122;8.644;2022-09-29T06:02:20;9.88;;;6.85;;
37693;SDS011;23531;50.122;8.644;2022-09-29T06:04:21;11.55;;;6.90;;
37693;SDS011;23531;50.122;8.644;2022-09-29T06:06:23;13.90;;;8.30;;
37693;SDS011;23531;50.122;8.644;2022-09-29T06:08:26;18.17;;;9.20;;
37693;SDS011;23531;50.122;8.644;2022-09-29T06:10:28;15.55;;;8.07;;
37693;SDS011;23531;50.122;8.644;2022-09-29T06:12:32;14.75;;;8.60;;
37693;SDS011;23531;50.122;8.644;2022-09-29T06:14:33;23.20;;;12.23;;
37693;SDS011;23531;50.122;8.644;2022-09-29T06:16:35;19.95;;;11.13;;
37693;SDS011;23531;50.122;8.644;2022-09-29T06:18:36;20.52;;;9.60;;
37693;SDS011;23531;50.122;8.644;2022-09-29T06:20:37;19.42;;;10.85;;
37693;SDS011;23531;50.122;8.644;2022-09-29T06:22:39;23.50;;;11.07;;
37693;SDS011;23531;50.122;8.644;2022-09-29T06:24:41;22.33;;;11.10;;
37693;SDS011;23531;50.122;8.644;2022-09-29T06:26:42;24.38;;;12.15;;
37693;SDS011;23531;50.122;8.644;2022-09-29T06:28:44;20.33;;;11.73;;
37693;SDS011;23531;50.122;8.644;2022-09-29T06:30:45;22.45;;;13.00;;
37693;SDS011;23531;50.122;8.644;2022-09-29T06:32:47;20.65;;;12.38;;
37693;SDS011;23531;50.122;8.644;2022-09-29T06:34:48;24.98;;;13.35;;
37693;SDS011;23531;50.122;8.644;2022-09-29T06:37:07;24.65;;;13.48;;
37693;SDS011;23531;50.122;8.644;2022-09-29T06:39:27;23.92;;;12.90;;
37693;SDS011;23531;50.122;8.644;2022-09-29T06:41:29;25.77;;;12.13;;
37693;SDS011;23531;50.122;8.644;2022-09-29T06:43:30;20.73;;;10.63;;
37693;SDS011;23531;50.122;8.644;2022-09-29T06:45:32;25.45;;;11.63;;
37693;SDS011;23531;50.122;8.644;2022-09-29T06:47:33;23.70;;;12.77;;
37693;SDS011;23531;50.122;8.644;2022-09-29T06:49:34;21.38;;;12.55;;
37693;SDS011;23531;50.122;8.644;2022-09-29T06:51:36;18.00;;;10.43;;
37693;SDS011;23531;50.122;8.644;2022-09-29T06:53:37;21.55;;;11.70;;
37693;SDS011;23531;50.122;8.644;2022-09-29T06:55:38;19.85;;;11.55;;
37693;SDS011;23531;50.122;8.644;2022-09-29T06:57:41;23.77;;;12.10;;
37693;SDS011;23531;50.122;8.644;2022-09-29T06:59:44;23.35;;;11.88;;
37693;SDS011;23531;50.122;8.644;2022-09-29T07:01:46;21.60;;;11.68;;
37693;SDS011;23531;50.122;8.644;2022-09-29T07:03:49;24.50;;;12.95;;
37693;SDS011;23531;50.122;8.644;2022-09-29T07:05:50;27.92;;;13.70;;
37693;SDS011;23531;50.122;8.644;2022-09-29T07:07:52;37.33;;;19.02;;
37693;SDS011;23531;50.122;8.644;2022-09-29T07:09:54;33.90;;;18.23;;
37693;SDS011;23531;50.122;8.644;2022-09-29T07:11:56;37.72;;;21.00;;
37693;SDS011;23531;50.122;8.644;2022-09-29T07:13:58;42.45;;;21.48;;
37693;SDS011;23531;50.122;8.644;2022-09-29T07:16:03;43.92;;;22.90;;
37693;SDS011;23531;50.122;8.644;2022-09-29T07:18:06;51.25;;;23.85;;
37693;SDS011;23531;50.122;8.644;2022-09-29T07:20:09;49.67;;;25.58;;
37693;SDS011;23531;50.122;8.644;2022-09-29T07:22:10;53.22;;;26.40;;
37693;SDS011;23531;50.122;8.644;2022-09-29T07:24:11;52.15;;;27.38;;
37693;SDS011;23531;50.122;8.644;2022-09-29T07:26:13;53.33;;;27.08;;
37693;SDS011;23531;50.122;8.644;2022-09-29T07:28:15;58.03;;;29.48;;
37693;SDS011;23531;50.122;8.644;2022-09-29T07:30:18;63.75;;;29.35;;
37693;SDS011;23531;50.122;8.644;2022-09-29T07:32:19;59.58;;;28.75;;
37693;SDS011;23531;50.122;8.644;2022-09-29T07:34:20;62.75;;;30.13;;
37693;SDS011;23531;50.122;8.644;2022-09-29T07:36:22;54.75;;;27.25;;
37693;SDS011;23531;50.122;8.644;2022-09-29T07:38:23;56.10;;;26.38;;
37693;SDS011;23531;50.122;8.644;2022-09-29T07:40:24;52.67;;;27.52;;
37693;SDS011;23531;50.122;8.644;2022-09-29T07:42:27;53.67;;;27.83;;
37693;SDS011;23531;50.122;8.644;2022-09-29T07:44:28;57.25;;;29.48;;
37693;SDS011;23531;50.122;8.644;2022-09-29T07:46:33;57.33;;;28.90;;
37693;SDS011;23531;50.122;8.644;2022-09-29T07:48:34;50.55;;;26.10;;
37693;SDS011;23531;50.122;8.644;2022-09-29T07:50:36;48.45;;;23.85;;
37693;SDS011;23531;50.122;8.644;2022-09-29T07:52:37;47.42;;;23.65;;
37693;SDS011;23531;50.122;8.644;2022-09-29T07:54:39;37.53;;;21.65;;
37693;SDS011;23531;50.122;8.644;2022-09-29T07:56:40;36.63;;;20.52;;
37693;SDS011;23531;50.122;8.644;2022-09-29T07:58:41;35.05;;;19.00;;
37693;SDS011;23531;50.122;8.644;2022-09-29T08:00:42;39.38;;;22.77;;
37693;SDS011;23531;50.122;8.644;2022-09-29T08:02:45;38.90;;;20.65;;
37693;SDS011;23531;50.122;8.644;2022-09-29T08:04:46;38.53;;;21.92;;
37693;SDS011;23531;50.122;8.644;2022-09-29T08:06:47;41.80;;;22.88;;
37693;SDS011;23531;50.122;8.644;2022-09-29T08:08:49;41.28;;;21.92;;
37693;SDS011;23531;50.122;8.644;2022-09-29T08:10:50;41.45;;;23.38;;
37693;SDS011;23531;50.122;8.644;2022-09-29T08:12:51;40.65;;;23.27;;
37693;SDS011;23531;50.122;8.644;2022-09-29T08:14:53;37.10;;;21.23;;
37693;SDS011;23531;50.122;8.644;2022-09-29T08:16:54;37.75;;;21.77;;
37693;SDS011;23531;50.122;8.644;2022-09-29T08:18:56;33.50;;;20.55;;
37693;SDS011;23531;50.122;8.644;2022-09-29T08:20:58;36.42;;;21.42;;
37693;SDS011;23531;50.122;8.644;2022-09-29T08:22:59;33.38;;;20.80;;
37693;SDS011;23531;50.122;8.644;2022-09-29T08:25:01;35.75;;;20.48;;
37693;SDS011;23531;50.122;8.644;2022-09-29T08:27:02;35.58;;;21.30;;
37693;SDS011;23531;50.122;8.644;2022-09-29T08:29:04;35.83;;;21.15;;
37693;SDS011;23531;50.122;8.644;2022-09-29T08:31:05;37.63;;;21.92;;
37693;SDS011;23531;50.122;8.644;2022-09-29T08:33:07;32.30;;;20.80;;
37693;SDS011;23531;50.122;8.644;2022-09-29T08:35:15;32.67;;;19.70;;
37693;SDS011;23531;50.122;8.644;2022-09-29T08:37:16;29.63;;;19.50;;
37693;SDS011;23531;50.122;8.644;2022-09-29T08:39:17;26.35;;;18.52;;
37693;SDS011;23531;50.122;8.644;2022-09-29T08:41:26;30.10;;;19.58;;
37693;SDS011;23531;50.122;8.644;2022-09-29T08:43:32;26.85;;;17.65;;
37693;SDS011;23531;50.122;8.644;2022-09-29T08:45:35;32.65;;;19.45;;
37693;SDS011;23531;50.122;8.644;2022-09-29T08:47:38;31.40;;;18.05;;
37693;SDS011;23531;50.122;8.644;2022-09-29T08:49:43;35.40;;;20.92;;
37693;SDS011;23531;50.122;8.644;2022-09-29T08:51:49;56.15;;;34.70;;
37693;SDS011;23531;50.122;8.644;2022-09-29T08:53:51;53.05;;;33.15;;
37693;SDS011;23531;50.122;8.644;2022-09-29T08:55:54;32.63;;;21.63;;
37693;SDS011;23531;50.122;8.644;2022-09-29T08:57:57;31.13;;;20.33;;
37693;SDS011;23531;50.122;8.644;2022-09-29T08:59:59;69.82;;;44.05;;
37693;SDS011;23531;50.122;8.644;2022-09-29T09:04:26;40.05;;;24.80;;
37693;SDS011;23531;50.122;8.644;2022-09-29T09:06:33;30.13;;;20.05;;
37693;SDS011;23531;50.122;8.644;2022-09-29T09:08:41;31.40;;;20.00;;
37693;SDS011;23531;50.122;8.644;2022-09-29T09:10:48;29.83;;;19.35;;
37693;SDS011;23531;50.122;8.644;2022-09-29T09:12:57;29.52;;;19.50;;
37693;SDS011;23531;50.122;8.644;2022-09-29T09:15:12;33.60;;;19.88;;
37693;SDS011;23531;50.122;8.644;2022-09-29T09:17:17;29.45;;;18.65;;
37693;SDS011;23531;50.122;8.644;2022-09-29T09:19:34;30.92;;;19.33;;
37693;SDS011;23531;50.122;8.644;2022-09-29T09:21:39;33.80;;;19.30;;
37693;SDS011;23531;50.122;8.644;2022-09-29T09:23:46;28.40;;;18.13;;
37693;SDS011;23531;50.122;8.644;2022-09-29T09:25:50;29.50;;;19.30;;
37693;SDS011;23531;50.122;8.644;2022-09-29T09:27:55;30.75;;;20.67;;
37693;SDS011;23531;50.122;8.644;2022-09-29T09:30:01;30.45;;;19.10;;
37693;SDS011;23531;50.122;8.644;2022-09-29T09:32:04;32.03;;;19.83;;
37693;SDS011;23531;50.122;8.644;2022-09-29T09:34:06;33.25;;;20.85;;
37693;SDS011;23531;50.122;8.644;2022-09-29T09:36:12;28.40;;;20.42;;
37693;SDS011;23531;50.122;8.644;2022-09-29T09:38:15;33.80;;;20.42;;
37693;SDS011;23531;50.122;8.644;2022-09-29T09:40:21;30.42;;;20.25;;
37693;SDS011;23531;50.122;8.644;2022-09-29T09:42:24;29.17;;;18.75;;
37693;SDS011;23531;50.122;8.644;2022-09-29T09:44:28;34.67;;;20.50;;
37693;SDS011;23531;50.122;8.644;2022-09-29T09:46:34;28.02;;;19.35;;
37693;SDS011;23531;50.122;8.644;2022-09-29T09:48:40;30.63;;;20.20;;
37693;SDS011;23531;50.122;8.644;2022-09-29T09:50:42;28.70;;;19.48;;
37693;SDS011;23531;50.122;8.644;2022-09-29T09:52:43;30.17;;;20.52;;
37693;SDS011;23531;50.122;8.644;2022-09-29T09:54:48;30.75;;;19.90;;
37693;SDS011;23531;50.122;8.644;2022-09-29T09:56:56;29.02;;;19.95;;
37693;SDS011;23531;50.122;8.644;2022-09-29T09:59:03;32.15;;;20.88;;
37693;SDS011;23531;50.122;8.644;2022-09-29T10:01:08;31.67;;;20.55;;
37693;SDS011;23531;50.122;8.644;2022-09-29T10:03:11;31.08;;;20.50;;
37693;SDS011;23531;50.122;8.644;2022-09-29T10:05:14;30.08;;;20.55;;
37693;SDS011;23531;50.122;8.644;2022-09-29T10:07:16;30.10;;;20.65;;
37693;SDS011;23531;50.122;8.644;2022-09-29T10:09:18;29.85;;;20.27;;
37693;SDS011;23531;50.122;8.644;2022-09-29T10:11:21;28.85;;;17.88;;
37693;SDS011;23531;50.122;8.644;2022-09-29T10:13:24;30.75;;;18.92;;
37693;SDS011;23531;50.122;8.644;2022-09-29T10:15:27;31.60;;;18.83;;
37693;SDS011;23531;50.122;8.644;2022-09-29T10:17:30;28.83;;;19.65;;
37693;SDS011;23531;50.122;8.644;2022-09-29T10:21:51;27.30;;;18.70;;
37693;SDS011;23531;50.122;8.644;2022-09-29T10:23:53;27.30;;;18.88;;
37693;SDS011;23531;50.122;8.644;2022-09-29T10:25:56;26.85;;;18.08;;
37693;SDS011;23531;50.122;8.644;2022-09-29T10:27:58;27.38;;;18.63;;
37693;SDS011;23531;50.122;8.644;2022-09-29T10:30:01;28.27;;;19.63;;
37693;SDS011;23531;50.122;8.644;2022-09-29T10:32:06;26.90;;;17.58;;
37693;SDS011;23531;50.122;8.644;2022-09-29T10:34:13;30.13;;;18.90;;
37693;SDS011;23531;50.122;8.644;2022-09-29T10:36:15;28.80;;;17.77;;
37693;SDS011;23531;50.122;8.644;2022-09-29T10:38:21;24.65;;;17.48;;
37693;SDS011;23531;50.122;8.644;2022-09-29T10:40:23;27.85;;;17.98;;
37693;SDS011;23531;50.122;8.644;2022-09-29T10:42:26;25.90;;;17.00;;
37693;SDS011;23531;50.122;8.644;2022-09-29T10:44:31;22.25;;;16.10;;
37693;SDS011;23531;50.122;8.644;2022-09-29T10:46:36;22.40;;;15.85;;
37693;SDS011;23531;50.122;8.644;2022-09-29T10:48:37;26.02;;;17.58;;
37693;SDS011;23531;50.122;8.644;2022-09-29T10:50:47;22.60;;;16.58;;
37693;SDS011;23531;50.122;8.644;2022-09-29T10:52:49;23.48;;;16.75;;
37693;SDS011;23531;50.122;8.644;2022-09-29T10:54:53;23.05;;;15.15;;
37693;SDS011;23531;50.122;8.644;2022-09-29T10:56:55;22.23;;;15.15;;
37693;SDS011;23531;50.122;8.644;2022-09-29T10:58:57;24.42;;;16.52;;
37693;SDS011;23531;50.122;8.644;2022-09-29T11:01:03;24.55;;;15.70;;
37693;SDS011;23531;50.122;8.644;2022-09-29T11:03:15;21.55;;;14.70;;
37693;SDS011;23531;50.122;8.644;2022-09-29T11:05:18;23.50;;;14.98;;
37693;SDS011;23531;50.122;8.644;2022-09-29T11:07:19;22.25;;;14.38;;
37693;SDS011;23531;50.122;8.644;2022-09-29T11:09:34;18.35;;;12.90;;
37693;SDS011;23531;50.122;8.644;2022-09-29T11:11:36;16.08;;;12.63;;
37693;SDS011;23531;50.122;8.644;2022-09-29T11:13:39;18.73;;;13.63;;
37693;SDS011;23531;50.122;8.644;2022-09-29T11:15:41;16.38;;;11.93;;
37693;SDS011;23531;50.122;8.644;2022-09-29T11:17:42;16.35;;;11.57;;
37693;SDS011;23531;50.122;8.644;2022-09-29T11:19:50;18.50;;;11.98;;
37693;SDS011;23531;50.122;8.644;2022-09-29T11:21:59;16.08;;;11.32;;
37693;SDS011;23531;50.122;8.644;2022-09-29T11:24:02;16.92;;;10.07;;
37693;SDS011;23531;50.122;8.644;2022-09-29T11:26:12;18.08;;;10.52;;
37693;SDS011;23531;50.122;8.644;2022-09-29T11:28:20;13.48;;;10.52;;
37693;SDS011;23531;50.122;8.644;2022-09-29T11:30:25;17.65;;;10.32;;
37693;SDS011;23531;50.122;8.644;2022-09-29T11:32:32;10.70;;;8.18;;
37693;SDS011;23531;50.122;8.644;2022-09-29T11:34:44;17.50;;;10.57;;
37693;SDS011;23531;50.122;8.644;2022-09-29T11:36:52;14.05;;;9.00;;
37693;SDS011;23531;50.122;8.644;2022-09-29T11:39:02;15.32;;;9.25;;
37693;SDS011;23531;50.122;8.644;2022-09-29T11:41:11;15.13;;;8.55;;
37693;SDS011;23531;50.122;8.644;2022-09-29T11:43:21;14.05;;;8.85;;
37693;SDS011;23531;50.122;8.644;2022-09-29T11:45:27;11.25;;;7.68;;
37693;SDS011;23531;50.122;8.644;2022-09-29T11:47:36;10.25;;;6.57;;
37693;SDS011;23531;50.122;8.644;2022-09-29T11:49:52;7.40;;;5.63;;
37693;SDS011;23531;50.122;8.644;2022-09-29T11:54:29;9.98;;;6.97;;
37693;SDS011;23531;50.122;8.644;2022-09-29T11:56:33;11.70;;;6.93;;
37693;SDS011;23531;50.122;8.644;2022-09-29T11:58:40;8.27;;;6.13;;
37693;SDS011;23531;50.122;8.644;2022-09-29T12:00:50;8.98;;;5.70;;
37693;SDS011;23531;50.122;8.644;2022-09-29T12:03:04;8.10;;;5.43;;
37693;SDS011;23531;50.122;8.644;2022-09-29T12:05:09;8.52;;;5.68;;
37693;SDS011;23531;50.122;8.644;2022-09-29T12:07:16;8.82;;;5.18;;
37693;SDS011;23531;50.122;8.644;2022-09-29T12:09:39;8.02;;;5.68;;
37693;SDS011;23531;50.122;8.644;2022-09-29T12:11:45;7.88;;;5.32;;
37693;SDS011;23531;50.122;8.644;2022-09-29T12:13:51;7.78;;;4.30;;
37693;SDS011;23531;50.122;8.644;2022-09-29T12:15:54;5.05;;;4.45;;
37693;SDS011;23531;50.122;8.644;2022-09-29T12:17:58;7.82;;;3.67;;
37693;SDS011;23531;50.122;8.644;2022-09-29T12:20:01;6.10;;;4.20;;
37693;SDS011;23531;50.122;8.644;2022-09-29T12:22:03;4.57;;;3.55;;
37693;SDS011;23531;50.122;8.644;2022-09-29T12:24:09;8.15;;;4.03;;